Latest Weather Observations for Melbourne Airport

IDV60801

Issued at 8:52 pm EDT Monday 17 December 2018 (issued every 10 minutes, with the page automatically refreshed every 10 minutes)

About weather observations | Map of weather stations | Latest weather observations for VIC | Other Formats
Station Details ID: 086282 Name: MELBOURNE AIRPORT Lat: -37.67 Lon: 144.83 Height: 113.4 m
Data from the previous 72 hours. | See also: Recent months at Melbourne Airport
Date/Time
EDT
Temp
°C
App
Temp
°C
Dew
Point
°C
Rel
Hum
%
Delta-T
°C
Wind Press
QNH
hPa
Press
MSL
hPa
Rain since
9am
mm
Dir  Spd
km/h
Gust
km/h
Spd
kts
Gust
kts
17/08:44pm 16.4 12.5 13.4 82 1.7 SSE 26 33 14 18 1015.4 1015.1 0.0
17/08:30pm 16.7 13.6 13.5 81 1.8 S 22 30 12 16 1015.4 1015.1 0.0
17/08:00pm 17.2 14.6 13.7 80 2.0 SSE 20 28 11 15 1014.9 1014.6 0.0
17/07:30pm 17.5 15.1 13.8 79 2.1 S 19 26 10 14 1014.7 1014.4 0.0
17/07:00pm 18.0 15.1 14.0 77 2.3 SSE 22 28 12 15 1014.4 1014.1 0.0
17/06:30pm 18.5 16.0 14.0 75 2.6 SSE 20 28 11 15 1013.9 1013.6 0.0
17/06:00pm 18.5 15.7 14.2 76 2.5 SSE 22 28 12 15 1013.7 1013.4 0.0
17/05:30pm 19.1 16.4 14.5 74 2.7 SSE 22 30 12 16 1013.6 1013.3 0.0
17/05:00pm 19.4 16.0 14.8 75 2.7 S 26 32 14 17 1013.4 1013.1 0.0
17/04:30pm 19.7 16.7 14.8 73 2.9 SSE 24 30 13 16 1013.1 1012.8 0.0
17/04:00pm 20.0 16.7 15.1 73 2.9 SSE 26 33 14 18 1012.9 1012.6 0.0
17/03:30pm 19.5 16.5 14.9 75 2.7 SSE 24 32 13 17 1013.0 1012.7 0.0
17/03:00pm 20.6 17.7 15.0 70 3.3 SSE 24 32 13 17 1012.7 1012.4 0.0
17/02:30pm 20.8 18.4 15.4 71 3.2 SSE 22 30 12 16 1012.6 1012.3 0.0
17/02:00pm 19.9 16.8 15.5 76 2.6 SSE 26 35 14 19 1012.2 1011.9 0.0
17/01:30pm 21.8 18.7 15.5 67 3.8 SE 26 32 14 17 1012.0 1011.7 0.0
17/01:00pm 22.2 20.9 13.6 58 5.0 SW 13 24 7 13 1012.0 1011.7 0.0
17/12:30pm 21.7 20.4 13.8 60 4.6 SSW 13 20 7 11 1012.1 1011.8 0.0
17/12:00pm 21.1 19.8 13.7 62 4.3 SSW 13 20 7 11 1012.4 1012.1 0.0
17/11:30am 20.6 19.7 13.7 64 4.0 WSW 11 20 6 11 1012.3 1012.0 0.0
17/11:00am 20.1 18.4 13.7 66 3.7 WSW 15 19 8 10 1012.3 1012.0 0.0
17/10:30am 19.5 18.2 13.6 68 3.4 WSW 13 19 7 10 1012.3 1012.0 0.0
17/10:00am 18.6 17.8 14.1 75 2.6 SW 11 15 6 8 1012.1 1011.8 0.0
17/09:30am 18.2 17.1 14.2 77 2.3 SW 13 17 7 9 1012.2 1011.9 0.0
17/09:25am 18.3 17.2 14.3 77 2.3 SW 13 17 7 9 1012.1 1011.8 0.0
17/09:00am 17.9 17.0 14.8 82 1.8 SW 13 17 7 9 1012.1 1011.8 0.6
17/08:49am 17.9 17.8 15.0 83 1.7 W 9 15 5 8 1012.0 1011.7 0.6
17/08:30am 17.6 17.1 15.0 85 1.5 WNW 11 15 6 8 1011.7 1011.4 0.6
17/08:00am 16.3 16.1 14.7 90 0.9 WNW 9 13 5 7 1011.5 1011.2 0.6
17/07:30am 15.6 15.3 14.4 93 0.7 WSW 9 11 5 6 1011.1 1010.8 0.6
17/07:00am 15.1 15.6 14.0 93 0.6 WSW 4 9 2 5 1010.7 1010.4 0.6
17/06:30am 14.5 15.8 14.0 97 0.3 CALM 0 0 0 0 1010.3 1010.0 0.6
17/06:08am 13.7 14.3 13.2 97 0.3 SSW 2 6 1 3 1010.3 1010.0 0.6
17/06:00am 13.6 13.2 13.1 97 0.3 SSW 7 9 4 5 1010.1 1009.8 0.6
17/05:30am 14.1 14.3 13.2 94 0.5 NNW 4 9 2 5 1009.7 1009.4 0.6
17/05:00am 14.7 13.8 13.8 94 0.5 N 11 13 6 7 1009.1 1008.9 0.6
17/04:30am 15.2 14.4 14.1 93 0.6 N 11 13 6 7 1008.8 1008.6 0.6
17/04:00am 14.7 13.5 14.0 96 0.4 N 13 15 7 8 1008.6 1008.4 0.6
17/03:30am 14.3 13.0 13.8 97 0.3 N 13 15 7 8 1008.3 1008.1 0.6
17/03:00am 14.3 13.8 13.8 97 0.3 NNW 9 11 5 6 1008.2 1008.0 0.6
17/02:30am 14.7 14.0 14.2 97 0.3 N 11 13 6 7 1008.1 1007.8 0.6
17/02:00am 14.9 14.6 14.4 97 0.3 N 9 11 5 6 1008.3 1008.1 0.4
17/01:30am 14.7 16.1 14.3 97 0.2 CALM 0 0 0 0 1008.6 1008.4 0.4
17/01:00am 15.3 15.5 14.6 96 0.4 WNW 7 9 4 5 1008.6 1008.4 0.4
17/12:30am 15.1 14.8 14.4 96 0.4 WNW 9 11 5 6 1008.7 1008.5 0.4
17/12:00am 15.3 16.4 14.6 96 0.4 N 2 6 1 3 1008.6 1008.4 0.4
 
Date/Time
EDT
Temp
°C
App
Temp
°C
Dew
Point
°C
Rel
Hum
%
Delta-T
°C
Wind Press
QNH
hPa
Press
MSL
hPa
Rain since
9am
mm
Dir  Spd
km/h
Gust
km/h
Spd
kts
Gust
kts
16/11:30pm 16.1 16.1 15.1 94 0.6 WNW 9 9 5 5 1008.8 1008.6 0.4
16/11:00pm 15.7 15.9 14.8 94 0.5 NW 7 9 4 5 1008.8 1008.6 0.4
16/10:30pm 15.8 16.1 15.1 96 0.4 W 7 9 4 5 1008.5 1008.3 0.4
16/10:00pm 16.4 17.5 15.7 96 0.4 SSE 4 7 2 4 1008.1 1007.8 0.4
16/09:30pm 16.5 17.2 15.5 94 0.6 SSE 6 11 3 6 1007.8 1007.5 0.4
16/09:00pm 17.1 17.2 15.6 91 0.9 WNW 9 13 5 7 1007.7 1007.4 0.4
16/08:30pm 18.1 18.1 15.2 83 1.7 WNW 9 11 5 6 1007.4 1007.1 0.4
16/08:00pm 18.5 18.8 14.9 79 2.1 NNW 7 11 4 6 1007.0 1006.7 0.4
16/07:30pm 17.7 18.0 15.9 89 1.1 SW 9 13 5 7 1006.8 1006.5 0.4
16/07:00pm 17.8 14.5 14.9 83 1.7 SW 26 35 14 19 1006.6 1006.3 0.2
16/06:30pm 21.6 18.8 12.7 57 5.1 N 19 28 10 15 1005.8 1005.5 0.2
16/06:00pm 22.8 19.9 13.0 54 5.7 N 20 28 11 15 1005.4 1005.1 0.2
16/05:30pm 21.3 18.0 12.9 58 4.8 N 22 32 12 17 1005.3 1005.0 0.2
16/05:00pm 21.0 17.4 13.2 61 4.5 N 24 32 13 17 1005.6 1005.3 0.2
16/04:30pm 21.1 18.4 12.9 59 4.7 NNW 19 32 10 17 1005.6 1005.3 0.2
16/04:00pm 19.5 17.5 14.0 70 3.2 NNW 17 26 9 14 1005.8 1005.5 0.2
16/03:30pm 19.8 14.9 11.3 58 4.7 NNW 28 37 15 20 1005.9 1005.6 0.2
16/03:00pm 20.3 14.9 12.3 60 4.5 N 32 39 17 21 1005.6 1005.3 0.2
16/02:30pm 19.7 14.6 11.8 60 4.4 NW 30 41 16 22 1005.7 1005.4 0.2
16/02:00pm 21.4 16.4 11.0 51 5.8 NNW 28 37 15 20 1005.6 1005.3 0.2
16/01:30pm 21.7 16.5 11.6 52 5.7 NNW 30 41 16 22 1005.6 1005.3 0.2
16/01:10pm 21.8 16.6 11.7 52 5.7 NNW 30 48 16 26 1005.5 1005.2 0.0
16/01:00pm 21.4 16.2 12.7 57 5.0 N 32 43 17 23 1005.6 1005.3 0.0
16/12:30pm 20.5 13.7 11.8 57 4.9 N 39 50 21 27 1005.8 1005.5 0.0
16/12:21pm 20.1 15.1 12.1 60 4.5 NNW 30 48 16 26 1005.8 1005.5 0.0
16/12:00pm 20.8 16.0 11.5 55 5.2 NNW 28 41 15 22 1005.9 1005.6 0.0
16/11:30am 21.2 15.9 12.6 58 4.9 N 32 41 17 22 1005.7 1005.4 0.0
16/11:00am 19.7 16.3 11.4 58 4.6 NNW 20 30 11 16 1005.7 1005.4 0.0
16/10:30am 19.3 16.4 11.1 59 4.5 NNW 17 26 9 14 1005.8 1005.5 0.0
16/10:00am 18.9 15.8 12.1 64 3.8 N 20 28 11 15 1006.1 1005.8 0.0
16/09:30am 17.8 16.4 12.2 70 3.1 NNW 11 17 6 9 1006.1 1005.8 0.0
16/09:00am 17.4 15.7 12.6 73 2.7 N 13 19 7 10 1006.0 1005.7 2.2
16/08:30am 17.1 13.9 13.0 77 2.3 N 22 30 12 16 1005.6 1005.3 2.2
16/08:00am 17.0 14.1 12.9 77 2.3 N 20 30 11 16 1005.2 1004.9 2.2
16/07:30am 16.8 14.0 12.5 76 2.4 N 19 26 10 14 1005.1 1004.8 2.2
16/07:00am 16.4 14.4 12.6 78 2.1 N 15 22 8 12 1004.9 1004.6 2.2
16/06:30am 16.0 12.6 12.4 79 2.0 N 22 33 12 18 1004.4 1004.1 2.2
16/06:00am 16.1 13.4 11.7 75 2.4 N 17 19 9 10 1004.1 1003.8 2.2
16/05:30am 16.3 13.9 11.5 73 2.6 NNW 15 24 8 13 1003.9 1003.6 2.2
16/05:00am 16.2 14.2 11.6 74 2.5 N 13 19 7 10 1003.7 1003.4 2.2
16/04:30am 16.4 13.6 11.5 73 2.7 N 17 24 9 13 1003.3 1003.0 2.2
16/04:00am 15.7 14.4 12.5 81 1.8 NNE 11 13 6 7 1003.2 1002.9 2.2
16/03:30am 16.0 14.4 11.6 75 2.4 NNW 11 15 6 8 1003.2 1002.9 2.2
16/03:00am 16.1 12.8 11.5 74 2.5 N 20 26 11 14 1003.2 1002.9 2.2
16/02:30am 16.0 14.2 12.0 77 2.2 NNE 13 19 7 10 1003.7 1003.4 2.2
16/02:00am 16.4 13.5 12.4 77 2.2 NE 19 26 10 14 1004.1 1003.8 2.2
16/01:30am 16.7 12.3 13.0 79 2.1 NE 28 35 15 19 1004.5 1004.2 2.2
16/01:00am 18.1 15.1 12.0 67 3.4 NNE 19 35 10 19 1004.7 1004.4 2.0
16/12:30am 17.7 16.1 12.9 73 2.7 N 13 17 7 9 1004.9 1004.6 2.0
16/12:00am 17.5 15.8 13.7 78 2.2 NNE 15 24 8 13 1005.1 1004.8 2.0
 
Date/Time
EDT
Temp
°C
App
Temp
°C
Dew
Point
°C
Rel
Hum
%
Delta-T
°C
Wind Press
QNH
hPa
Press
MSL
hPa
Rain since
9am
mm
Dir  Spd
km/h
Gust
km/h
Spd
kts
Gust
kts
15/11:30pm 17.8 16.7 13.0 73 2.7 NNE 11 17 6 9 1004.8 1004.5 2.0
15/11:00pm 18.4 15.5 12.3 67 3.4 N 19 26 10 14 1005.2 1004.9 2.0
15/10:30pm 19.3 17.2 11.1 59 4.5 NNW 13 19 7 10 1005.4 1005.1 2.0
15/10:00pm 20.1 17.5 10.6 54 5.2 NNE 15 26 8 14 1005.3 1005.0 2.0
15/09:30pm 19.3 17.0 11.8 62 4.2 ENE 15 17 8 9 1005.1 1004.8 2.0
15/09:00pm 19.1 17.2 11.7 62 4.1 NNE 13 19 7 10 1004.7 1004.4 2.0
15/08:30pm 21.3 17.0 9.5 47 6.4 NNE 22 30 12 16 1004.2 1003.9 2.0
15/08:00pm 22.0 18.5 10.2 47 6.5 NNE 19 28 10 15 1003.5 1003.2 2.0
15/07:30pm 22.0 18.3 11.5 51 5.9 NNE 22 28 12 15 1003.7 1003.4 2.0
15/07:00pm 22.2 18.4 11.3 50 6.1 N 22 30 12 16 1003.6 1003.3 2.0
15/06:30pm 22.4 19.5 12.2 52 5.8 NNE 19 26 10 14 1003.7 1003.4 2.0
15/06:00pm 22.9 18.1 11.6 49 6.4 NNE 28 39 15 21 1003.7 1003.4 2.0
15/05:30pm 22.6 17.9 10.5 46 6.7 N 26 32 14 17 1003.7 1003.4 2.0
15/05:00pm 22.4 17.4 10.9 48 6.4 N 28 35 15 19 1003.7 1003.4 1.8
15/04:30pm 23.3 16.5 10.8 45 7.0 N 37 50 20 27 1003.9 1003.6 1.8
15/04:00pm 22.9 17.3 11.4 48 6.5 N 32 46 17 25 1003.8 1003.5 1.8
15/03:57pm 22.7 16.9 11.6 49 6.3 N 33 52 18 28 1003.9 1003.6 1.8
15/03:30pm 21.7 16.5 12.8 57 5.1 N 32 39 17 21 1003.8 1003.5 1.8
15/03:00pm 19.6 15.5 15.0 75 2.7 N 30 37 16 20 1004.4 1004.1 1.8
15/02:30pm 17.2 12.5 14.4 83 1.6 NNW 32 41 17 22 1004.6 1004.3 1.8
15/02:00pm 16.4 9.9 14.1 86 1.3 NNW 41 56 22 30 1004.5 1004.2 1.2
15/01:33pm 19.0 12.0 12.4 65 3.7 N 41 59 22 32 1005.4 1005.1 0.0
15/01:30pm 19.8 14.6 12.8 64 4.0 N 32 50 17 27 1005.3 1005.0 0.0
15/01:25pm 21.1 18.1 12.5 58 4.9 N 20 44 11 24 1004.9 1004.6 0.0
15/01:00pm 22.2 20.7 11.8 51 5.9 NW 11 15 6 8 1004.3 1004.0 0.0
15/12:30pm 22.4 20.9 10.7 47 6.5 NW 9 17 5 9 1004.4 1004.1 0.0
15/12:00pm 21.6 20.1 13.1 58 4.9 NNW 13 15 7 8 1004.6 1004.3 0.0
15/11:30am 21.6 21.7 14.5 64 4.2 N 7 13 4 7 1004.9 1004.6 0.0
15/11:00am 21.6 22.0 16.4 72 3.2 NE 9 15 5 8 1005.1 1004.8 0.0
15/10:30am 20.4 21.2 16.3 77 2.5 WSW 7 11 4 6 1005.2 1004.9 0.0
15/10:00am 19.9 19.5 16.1 79 2.3 W 13 17 7 9 1004.9 1004.6 0.0
15/09:56am 19.9 19.1 16.1 79 2.3 WNW 15 17 8 9 1004.8 1004.5 0.0
15/09:30am 18.1 16.5 15.0 82 1.8 WNW 17 26 9 14 1005.3 1005.0 0.0
15/09:00am 19.2 19.8 17.6 90 1.0 N 11 15 6 8 1005.5 1005.2 22.2
15/08:30am 18.6 20.1 17.6 94 0.6 SW 6 7 3 4 1005.3 1005.0 22.2
15/08:00am 18.1 18.9 17.4 96 0.4 WSW 9 11 5 6 1005.1 1004.8 22.2
15/07:38am 17.7 18.8 17.2 97 0.3 SW 7 11 4 6 1005.4 1005.1 22.2
15/07:30am 17.6 18.3 17.1 97 0.3 SW 9 11 5 6 1004.9 1004.6 22.2
15/07:00am 17.4 19.0 16.9 97 0.3 SW 4 7 2 4 1004.5 1004.2 22.2
15/06:30am 16.7 17.6 16.2 97 0.3 W 6 9 3 5 1004.3 1004.0 22.2
15/06:00am 16.7 16.6 16.0 96 0.4 W 11 13 6 7 1004.3 1004.0 22.2
15/05:30am 17.4 19.8 16.9 97 0.3 CALM 0 0 0 0 1004.8 1004.5 22.2
15/05:00am 17.3 18.2 16.5 95 0.5 N 7 9 4 5 1004.9 1004.6 22.2
15/04:30am 17.1 17.9 16.4 96 0.4 N 7 9 4 5 1004.7 1004.4 22.2
15/04:00am 16.8 17.5 16.0 95 0.5 WSW 7 11 4 6 1004.2 1003.9 22.2
15/03:30am 17.0 17.7 16.0 94 0.6 N 7 9 4 5 1005.0 1004.7 22.0
15/03:25am 17.1 17.7 15.7 91 0.8 N 7 9 4 5 1005.1 1004.8 22.0
15/03:00am 17.1 19.1 15.9 93 0.7 CALM 0 0 0 0 1005.2 1004.9 22.0
15/02:30am 16.8 18.8 16.1 96 0.4 CALM 0 0 0 0 1005.1 1004.8 22.0
15/02:00am 16.8 18.8 16.1 96 0.4 CALM 0 0 0 0 1005.5 1005.2 22.0
15/01:30am 16.9 18.1 15.9 94 0.6 NW 4 7 2 4 1005.6 1005.3 22.0
15/01:00am 16.8 17.5 15.6 93 0.7 NNW 6 9 3 5 1005.5 1005.2 22.0
15/12:30am 17.0 17.2 15.8 93 0.7 NNW 9 11 5 6 1006.0 1005.7 22.0
15/12:00am 17.0 17.6 15.8 93 0.7 N 7 9 4 5 1006.0 1005.7 22.0
 
Date/Time
EDT
Temp
°C
App
Temp
°C
Dew
Point
°C
Rel
Hum
%
Delta-T
°C
Wind Press
QNH
hPa
Press
MSL
hPa
Rain since
9am
mm
Dir  Spd
km/h
Gust
km/h
Spd
kts
Gust
kts
14/11:30pm 17.2 17.9 16.2 94 0.6 WSW 7 9 4 5 1006.1 1005.8 22.0
14/11:00pm 17.6 17.9 15.9 90 1.0 N 9 11 5 6 1006.4 1006.1 22.0
14/10:30pm 17.8 18.5 16.0 89 1.1 NE 7 11 4 6 1006.1 1005.8 21.8
14/10:00pm 17.8 17.1 15.4 86 1.4 NW 13 19 7 10 1005.8 1005.5 21.8
14/09:30pm 17.7 18.0 15.9 89 1.1 NW 9 9 5 5 1005.6 1005.3 21.8
14/09:00pm 18.2 18.6 16.2 88 1.2 N 9 15 5 8 1005.9 1005.6 21.8

Other Formats:

Comma delimited format used in spreadsheet applications
http://www.bom.gov.au/fwo/IDV60801/IDV60801.94866.axf

JavaScript Object Notation format (JSON) in row-major order
http://www.bom.gov.au/fwo/IDV60801/IDV60801.94866.json